Aérodrome :
LOGIN :

S'inscrire | Disclaimer

   EN    FR    IT 

 










Légende :    VFR   VFR Marginal   IFR   IFR Intensif   IFR Très Intensif
Visi : 
Plafond : 
>= 8 km
>= 3000ft
5 à 8 km
1000 à 3000 ft
1500m à 5 km
500 à 1000 ft
800 à 1500m
200 à 500 ft
< 800m
< 200 ft
Symboles :   Orages  Brouillard  Fortes neiges  Fortes précipitations  Vent > 20 kt
SIGMETs :   Divers  Orages  Givrage  Turbulence  Onde Orograph.  Cendres Volcan.







- Altitude de l'aérodrome : 466 ft


LHPA - Pápa

DERNIER METAR :
  • 250615Z 20014G23KT 170V230 CAVOK 14/05 Q1011 NOSIG RMK BLU

METARs EXPIRÉS :
  • 250613Z 20014G23KT 170V230 CAVOK 14/05 Q1011 RMK BLU
  • 250545Z 19014KT CAVOK 13/06 Q1011 NOSIG RMK BLU
  • 250515Z 19014KT CAVOK 12/06 Q1011 NOSIG RMK BLU
  • 250445Z 19014KT CAVOK 11/06 Q1011 NOSIG RMK BLU
  • 250415Z 19012KT CAVOK 11/06 Q1011 NOSIG RMK BLU
  • 250345Z 19012KT CAVOK 10/06 Q1011 NOSIG RMK BLU
  • 250315Z 19012KT CAVOK 10/06 Q1011 NOSIG RMK BLU

TAF TAF LHPA
Valide du 25 à 06h jusqu'au 26 à 06h UTC


250515Z 2506/2606 19013KT CAVOK
BECMG 2506/2509 20015G26KT
TEMPO 2509/2516 21020G33KT 9999 SCT040 SCT200
BECMG 2523/2602 19012KT
Pas de NOTAMs connus pour ce terrain.



MET'MAP, la Météo Aéronautique d'un coup d'oeil ! - Copyright ORBIFLY Décembre 2007 - Disclaimer

ORBIFLY MET'MAP TEAM :

Programmation & Développement : Alexandra Zaïnal
Conception & Développement : Baudouin d'Aumeries
Co-Programmation & Développement : Marc-Olivier Méhu
Soutien technique & logistique : Manuel Goepfert

Contact : metmap@orbifly.com




SOURCES & CREDITS :

   NOAA